sensor_id;sensor_type;location;lat;lon;timestamp;P1;durP1;ratioP1;P2;durP2;ratioP2
50549;SDS011;36505;52.512;13.460;2024-01-30T00:02:15;16.77;;;7.70;;
50549;SDS011;36505;52.512;13.460;2024-01-30T00:04:41;16.88;;;7.32;;
50549;SDS011;36505;52.512;13.460;2024-01-30T00:07:06;15.98;;;8.43;;
50549;SDS011;36505;52.512;13.460;2024-01-30T00:09:32;16.13;;;6.82;;
50549;SDS011;36505;52.512;13.460;2024-01-30T00:11:57;17.77;;;7.47;;
50549;SDS011;36505;52.512;13.460;2024-01-30T00:14:23;14.75;;;6.63;;
50549;SDS011;36505;52.512;13.460;2024-01-30T00:16:48;12.93;;;6.93;;
50549;SDS011;36505;52.512;13.460;2024-01-30T00:19:15;15.48;;;7.57;;
50549;SDS011;36505;52.512;13.460;2024-01-30T00:21:40;10.65;;;6.38;;
50549;SDS011;36505;52.512;13.460;2024-01-30T00:24:06;17.83;;;7.15;;
50549;SDS011;36505;52.512;13.460;2024-01-30T00:26:31;16.60;;;7.45;;
50549;SDS011;36505;52.512;13.460;2024-01-30T00:28:57;12.75;;;6.25;;
50549;SDS011;36505;52.512;13.460;2024-01-30T00:31:22;16.02;;;6.78;;
50549;SDS011;36505;52.512;13.460;2024-01-30T00:33:47;14.02;;;6.80;;
50549;SDS011;36505;52.512;13.460;2024-01-30T00:36:13;15.70;;;6.85;;
50549;SDS011;36505;52.512;13.460;2024-01-30T00:38:38;13.13;;;6.50;;
50549;SDS011;36505;52.512;13.460;2024-01-30T00:41:05;14.88;;;6.85;;
50549;SDS011;36505;52.512;13.460;2024-01-30T00:43:32;14.23;;;6.68;;
50549;SDS011;36505;52.512;13.460;2024-01-30T00:45:58;15.88;;;6.72;;
50549;SDS011;36505;52.512;13.460;2024-01-30T00:48:24;14.40;;;7.50;;
50549;SDS011;36505;52.512;13.460;2024-01-30T00:50:49;12.52;;;6.70;;
50549;SDS011;36505;52.512;13.460;2024-01-30T00:53:15;11.57;;;5.85;;
50549;SDS011;36505;52.512;13.460;2024-01-30T00:55:40;11.68;;;6.28;;
50549;SDS011;36505;52.512;13.460;2024-01-30T00:58:05;11.85;;;5.57;;
50549;SDS011;36505;52.512;13.460;2024-01-30T01:00:31;13.60;;;5.80;;
50549;SDS011;36505;52.512;13.460;2024-01-30T01:03:00;14.05;;;6.22;;
50549;SDS011;36505;52.512;13.460;2024-01-30T01:05:26;14.30;;;5.82;;
50549;SDS011;36505;52.512;13.460;2024-01-30T01:07:51;11.07;;;5.70;;
50549;SDS011;36505;52.512;13.460;2024-01-30T01:10:17;9.65;;;5.57;;
50549;SDS011;36505;52.512;13.460;2024-01-30T01:12:43;12.40;;;6.05;;
50549;SDS011;36505;52.512;13.460;2024-01-30T01:15:13;11.60;;;5.97;;
50549;SDS011;36505;52.512;13.460;2024-01-30T01:17:38;13.50;;;6.05;;
50549;SDS011;36505;52.512;13.460;2024-01-30T01:20:05;14.82;;;6.05;;
50549;SDS011;36505;52.512;13.460;2024-01-30T01:22:31;12.15;;;5.47;;
50549;SDS011;36505;52.512;13.460;2024-01-30T01:24:58;11.18;;;5.75;;
50549;SDS011;36505;52.512;13.460;2024-01-30T01:27:23;11.32;;;5.30;;
50549;SDS011;36505;52.512;13.460;2024-01-30T01:29:49;13.38;;;5.50;;
50549;SDS011;36505;52.512;13.460;2024-01-30T01:32:15;11.43;;;6.28;;
50549;SDS011;36505;52.512;13.460;2024-01-30T01:34:41;12.13;;;5.90;;
50549;SDS011;36505;52.512;13.460;2024-01-30T01:37:06;13.77;;;6.03;;
50549;SDS011;36505;52.512;13.460;2024-01-30T01:39:32;13.55;;;6.40;;
50549;SDS011;36505;52.512;13.460;2024-01-30T01:41:57;11.07;;;5.50;;
50549;SDS011;36505;52.512;13.460;2024-01-30T01:44:23;11.35;;;6.22;;
50549;SDS011;36505;52.512;13.460;2024-01-30T01:46:48;16.40;;;6.13;;
50549;SDS011;36505;52.512;13.460;2024-01-30T01:49:14;12.32;;;5.53;;
50549;SDS011;36505;52.512;13.460;2024-01-30T01:51:39;11.45;;;5.93;;
50549;SDS011;36505;52.512;13.460;2024-01-30T01:54:06;14.77;;;6.47;;
50549;SDS011;36505;52.512;13.460;2024-01-30T01:56:32;11.63;;;5.82;;
50549;SDS011;36505;52.512;13.460;2024-01-30T01:59:04;10.38;;;5.63;;
50549;SDS011;36505;52.512;13.460;2024-01-30T02:01:32;15.13;;;6.22;;
50549;SDS011;36505;52.512;13.460;2024-01-30T02:03:58;10.48;;;5.88;;
50549;SDS011;36505;52.512;13.460;2024-01-30T02:06:24;13.05;;;6.07;;
50549;SDS011;36505;52.512;13.460;2024-01-30T02:08:49;12.32;;;5.82;;
50549;SDS011;36505;52.512;13.460;2024-01-30T02:11:15;15.70;;;6.25;;
50549;SDS011;36505;52.512;13.460;2024-01-30T02:13:41;13.50;;;5.88;;
50549;SDS011;36505;52.512;13.460;2024-01-30T02:16:07;12.73;;;6.72;;
50549;SDS011;36505;52.512;13.460;2024-01-30T02:18:32;10.23;;;5.90;;
50549;SDS011;36505;52.512;13.460;2024-01-30T02:20:58;10.40;;;5.75;;
50549;SDS011;36505;52.512;13.460;2024-01-30T02:23:28;14.18;;;6.10;;
50549;SDS011;36505;52.512;13.460;2024-01-30T02:25:55;11.50;;;5.82;;
50549;SDS011;36505;52.512;13.460;2024-01-30T02:28:21;13.05;;;6.20;;
50549;SDS011;36505;52.512;13.460;2024-01-30T02:30:46;12.63;;;6.43;;
50549;SDS011;36505;52.512;13.460;2024-01-30T02:33:12;13.88;;;6.40;;
50549;SDS011;36505;52.512;13.460;2024-01-30T02:35:38;11.48;;;6.18;;
50549;SDS011;36505;52.512;13.460;2024-01-30T02:38:03;13.30;;;6.47;;
50549;SDS011;36505;52.512;13.460;2024-01-30T02:40:29;10.95;;;5.93;;
50549;SDS011;36505;52.512;13.460;2024-01-30T02:42:55;12.15;;;6.13;;
50549;SDS011;36505;52.512;13.460;2024-01-30T02:45:21;14.75;;;7.00;;
50549;SDS011;36505;52.512;13.460;2024-01-30T02:47:46;14.00;;;6.57;;
50549;SDS011;36505;52.512;13.460;2024-01-30T02:50:12;15.52;;;6.43;;
50549;SDS011;36505;52.512;13.460;2024-01-30T02:52:38;11.30;;;5.65;;
50549;SDS011;36505;52.512;13.460;2024-01-30T02:55:03;14.57;;;6.57;;
50549;SDS011;36505;52.512;13.460;2024-01-30T02:57:29;12.52;;;7.13;;
50549;SDS011;36505;52.512;13.460;2024-01-30T02:59:55;12.60;;;6.22;;
50549;SDS011;36505;52.512;13.460;2024-01-30T03:02:20;11.98;;;5.82;;
50549;SDS011;36505;52.512;13.460;2024-01-30T03:04:45;14.23;;;6.40;;
50549;SDS011;36505;52.512;13.460;2024-01-30T03:07:11;9.70;;;5.47;;
50549;SDS011;36505;52.512;13.460;2024-01-30T03:09:37;15.00;;;6.38;;
50549;SDS011;36505;52.512;13.460;2024-01-30T03:12:03;13.80;;;5.53;;
50549;SDS011;36505;52.512;13.460;2024-01-30T03:14:30;13.30;;;6.50;;
50549;SDS011;36505;52.512;13.460;2024-01-30T03:16:56;12.68;;;5.75;;
50549;SDS011;36505;52.512;13.460;2024-01-30T03:19:21;12.88;;;5.72;;
50549;SDS011;36505;52.512;13.460;2024-01-30T03:21:46;11.40;;;5.75;;
50549;SDS011;36505;52.512;13.460;2024-01-30T03:24:12;10.88;;;5.97;;
50549;SDS011;36505;52.512;13.460;2024-01-30T03:26:37;12.38;;;6.00;;
50549;SDS011;36505;52.512;13.460;2024-01-30T03:29:02;11.43;;;5.57;;
50549;SDS011;36505;52.512;13.460;2024-01-30T03:31:28;11.10;;;5.30;;
50549;SDS011;36505;52.512;13.460;2024-01-30T03:33:53;13.13;;;6.07;;
50549;SDS011;36505;52.512;13.460;2024-01-30T03:36:19;11.68;;;6.32;;
50549;SDS011;36505;52.512;13.460;2024-01-30T03:38:45;16.27;;;6.60;;
50549;SDS011;36505;52.512;13.460;2024-01-30T03:41:10;13.35;;;6.20;;
50549;SDS011;36505;52.512;13.460;2024-01-30T03:43:36;13.25;;;6.22;;
50549;SDS011;36505;52.512;13.460;2024-01-30T03:46:02;15.35;;;6.72;;
50549;SDS011;36505;52.512;13.460;2024-01-30T03:48:28;14.80;;;6.18;;
50549;SDS011;36505;52.512;13.460;2024-01-30T03:50:54;14.73;;;6.97;;
50549;SDS011;36505;52.512;13.460;2024-01-30T03:53:19;10.82;;;6.15;;
50549;SDS011;36505;52.512;13.460;2024-01-30T03:55:45;16.13;;;6.25;;
50549;SDS011;36505;52.512;13.460;2024-01-30T03:58:10;11.85;;;5.65;;
50549;SDS011;36505;52.512;13.460;2024-01-30T04:00:35;11.35;;;5.93;;
50549;SDS011;36505;52.512;13.460;2024-01-30T04:03:01;11.15;;;6.07;;
50549;SDS011;36505;52.512;13.460;2024-01-30T04:05:26;13.07;;;5.78;;
50549;SDS011;36505;52.512;13.460;2024-01-30T04:07:52;12.02;;;6.03;;
50549;SDS011;36505;52.512;13.460;2024-01-30T04:10:17;11.93;;;5.90;;
50549;SDS011;36505;52.512;13.460;2024-01-30T04:12:42;12.85;;;6.22;;
50549;SDS011;36505;52.512;13.460;2024-01-30T04:15:08;10.48;;;5.97;;
50549;SDS011;36505;52.512;13.460;2024-01-30T04:17:33;15.05;;;6.30;;
50549;SDS011;36505;52.512;13.460;2024-01-30T04:19:59;10.70;;;6.22;;
50549;SDS011;36505;52.512;13.460;2024-01-30T04:22:24;15.48;;;6.40;;
50549;SDS011;36505;52.512;13.460;2024-01-30T04:24:50;14.15;;;7.03;;
50549;SDS011;36505;52.512;13.460;2024-01-30T04:27:15;13.30;;;6.13;;
50549;SDS011;36505;52.512;13.460;2024-01-30T04:29:40;13.32;;;6.95;;
50549;SDS011;36505;52.512;13.460;2024-01-30T04:32:06;9.43;;;5.18;;
50549;SDS011;36505;52.512;13.460;2024-01-30T04:34:31;11.13;;;6.15;;
50549;SDS011;36505;52.512;13.460;2024-01-30T04:36:57;11.80;;;6.40;;
50549;SDS011;36505;52.512;13.460;2024-01-30T04:39:22;11.90;;;5.97;;
50549;SDS011;36505;52.512;13.460;2024-01-30T04:41:48;14.15;;;6.63;;
50549;SDS011;36505;52.512;13.460;2024-01-30T04:44:13;15.38;;;6.60;;
50549;SDS011;36505;52.512;13.460;2024-01-30T04:46:39;15.02;;;5.88;;
50549;SDS011;36505;52.512;13.460;2024-01-30T04:49:04;14.05;;;6.20;;
50549;SDS011;36505;52.512;13.460;2024-01-30T04:51:30;12.55;;;6.07;;
50549;SDS011;36505;52.512;13.460;2024-01-30T04:53:55;12.73;;;6.07;;
50549;SDS011;36505;52.512;13.460;2024-01-30T04:56:21;11.40;;;5.88;;
50549;SDS011;36505;52.512;13.460;2024-01-30T04:58:46;15.30;;;6.60;;
50549;SDS011;36505;52.512;13.460;2024-01-30T05:01:15;15.50;;;7.15;;
50549;SDS011;36505;52.512;13.460;2024-01-30T05:03:41;12.02;;;5.75;;
50549;SDS011;36505;52.512;13.460;2024-01-30T05:06:07;13.18;;;5.90;;
50549;SDS011;36505;52.512;13.460;2024-01-30T05:08:32;14.23;;;6.75;;
50549;SDS011;36505;52.512;13.460;2024-01-30T05:11:00;13.50;;;6.20;;
50549;SDS011;36505;52.512;13.460;2024-01-30T05:13:25;11.93;;;6.35;;
50549;SDS011;36505;52.512;13.460;2024-01-30T05:15:51;11.55;;;7.00;;
50549;SDS011;36505;52.512;13.460;2024-01-30T05:18:16;11.57;;;6.20;;
50549;SDS011;36505;52.512;13.460;2024-01-30T05:20:41;12.45;;;6.68;;
50549;SDS011;36505;52.512;13.460;2024-01-30T05:23:07;12.52;;;6.40;;
50549;SDS011;36505;52.512;13.460;2024-01-30T05:25:33;15.07;;;6.38;;
50549;SDS011;36505;52.512;13.460;2024-01-30T05:27:58;16.83;;;6.40;;
50549;SDS011;36505;52.512;13.460;2024-01-30T05:30:24;14.27;;;6.60;;
50549;SDS011;36505;52.512;13.460;2024-01-30T05:32:49;13.82;;;6.78;;
50549;SDS011;36505;52.512;13.460;2024-01-30T05:35:14;13.95;;;6.28;;
50549;SDS011;36505;52.512;13.460;2024-01-30T05:37:40;13.35;;;6.68;;
50549;SDS011;36505;52.512;13.460;2024-01-30T05:40:06;11.88;;;5.53;;
50549;SDS011;36505;52.512;13.460;2024-01-30T05:42:31;12.48;;;6.30;;
50549;SDS011;36505;52.512;13.460;2024-01-30T05:44:57;14.25;;;6.20;;
50549;SDS011;36505;52.512;13.460;2024-01-30T05:47:22;16.20;;;6.32;;
50549;SDS011;36505;52.512;13.460;2024-01-30T05:49:48;12.15;;;7.18;;
50549;SDS011;36505;52.512;13.460;2024-01-30T05:52:13;14.88;;;7.13;;
50549;SDS011;36505;52.512;13.460;2024-01-30T05:54:40;14.73;;;7.10;;
50549;SDS011;36505;52.512;13.460;2024-01-30T05:57:05;12.70;;;6.38;;
50549;SDS011;36505;52.512;13.460;2024-01-30T05:59:31;14.70;;;6.07;;
50549;SDS011;36505;52.512;13.460;2024-01-30T06:01:57;14.85;;;7.35;;
50549;SDS011;36505;52.512;13.460;2024-01-30T06:04:22;15.73;;;6.65;;
50549;SDS011;36505;52.512;13.460;2024-01-30T06:06:48;14.43;;;6.43;;
50549;SDS011;36505;52.512;13.460;2024-01-30T06:09:13;14.57;;;6.63;;
50549;SDS011;36505;52.512;13.460;2024-01-30T06:11:39;14.93;;;6.43;;
50549;SDS011;36505;52.512;13.460;2024-01-30T06:14:04;12.18;;;6.40;;
50549;SDS011;36505;52.512;13.460;2024-01-30T06:16:30;11.98;;;6.28;;
50549;SDS011;36505;52.512;13.460;2024-01-30T06:18:56;10.82;;;6.10;;
50549;SDS011;36505;52.512;13.460;2024-01-30T06:21:22;14.23;;;6.57;;
50549;SDS011;36505;52.512;13.460;2024-01-30T06:23:48;16.02;;;6.95;;
50549;SDS011;36505;52.512;13.460;2024-01-30T06:26:14;14.13;;;7.10;;
50549;SDS011;36505;52.512;13.460;2024-01-30T06:28:39;15.93;;;6.55;;
50549;SDS011;36505;52.512;13.460;2024-01-30T06:31:04;15.23;;;5.85;;
50549;SDS011;36505;52.512;13.460;2024-01-30T06:33:30;14.10;;;6.63;;
50549;SDS011;36505;52.512;13.460;2024-01-30T06:35:55;12.70;;;6.90;;
50549;SDS011;36505;52.512;13.460;2024-01-30T06:38:20;13.07;;;6.63;;
50549;SDS011;36505;52.512;13.460;2024-01-30T06:40:46;12.95;;;6.82;;
50549;SDS011;36505;52.512;13.460;2024-01-30T06:43:11;13.05;;;6.43;;
50549;SDS011;36505;52.512;13.460;2024-01-30T06:45:36;14.07;;;7.18;;
50549;SDS011;36505;52.512;13.460;2024-01-30T06:48:02;15.82;;;6.95;;
50549;SDS011;36505;52.512;13.460;2024-01-30T06:50:28;11.50;;;6.28;;
50549;SDS011;36505;52.512;13.460;2024-01-30T06:52:53;13.27;;;6.40;;
50549;SDS011;36505;52.512;13.460;2024-01-30T06:55:18;12.73;;;6.35;;
50549;SDS011;36505;52.512;13.460;2024-01-30T06:57:44;15.93;;;7.47;;
50549;SDS011;36505;52.512;13.460;2024-01-30T07:00:09;10.80;;;6.70;;
50549;SDS011;36505;52.512;13.460;2024-01-30T07:02:35;15.43;;;7.22;;
50549;SDS011;36505;52.512;13.460;2024-01-30T07:05:01;11.57;;;6.72;;
50549;SDS011;36505;52.512;13.460;2024-01-30T07:07:27;16.95;;;7.05;;
50549;SDS011;36505;52.512;13.460;2024-01-30T07:09:53;12.63;;;6.68;;
50549;SDS011;36505;52.512;13.460;2024-01-30T07:12:22;16.65;;;6.65;;
50549;SDS011;36505;52.512;13.460;2024-01-30T07:14:49;13.40;;;7.25;;
50549;SDS011;36505;52.512;13.460;2024-01-30T07:17:15;15.00;;;7.57;;
50549;SDS011;36505;52.512;13.460;2024-01-30T07:19:40;14.15;;;7.20;;
50549;SDS011;36505;52.512;13.460;2024-01-30T07:22:06;16.25;;;7.82;;
50549;SDS011;36505;52.512;13.460;2024-01-30T07:24:31;14.23;;;6.80;;
50549;SDS011;36505;52.512;13.460;2024-01-30T07:26:57;14.77;;;7.05;;
50549;SDS011;36505;52.512;13.460;2024-01-30T07:29:22;13.98;;;7.07;;
50549;SDS011;36505;52.512;13.460;2024-01-30T07:31:47;15.43;;;6.70;;
50549;SDS011;36505;52.512;13.460;2024-01-30T07:34:13;15.63;;;6.90;;
50549;SDS011;36505;52.512;13.460;2024-01-30T07:36:38;15.05;;;7.18;;
50549;SDS011;36505;52.512;13.460;2024-01-30T07:39:04;15.43;;;7.22;;
50549;SDS011;36505;52.512;13.460;2024-01-30T07:41:29;11.38;;;6.60;;
50549;SDS011;36505;52.512;13.460;2024-01-30T07:43:55;11.70;;;6.78;;
50549;SDS011;36505;52.512;13.460;2024-01-30T07:46:20;15.50;;;6.68;;
50549;SDS011;36505;52.512;13.460;2024-01-30T07:48:45;13.82;;;7.07;;
50549;SDS011;36505;52.512;13.460;2024-01-30T07:51:11;15.40;;;7.00;;
50549;SDS011;36505;52.512;13.460;2024-01-30T07:53:36;15.65;;;7.38;;
50549;SDS011;36505;52.512;13.460;2024-01-30T07:56:02;16.40;;;6.95;;
50549;SDS011;36505;52.512;13.460;2024-01-30T07:58:27;13.90;;;6.80;;
50549;SDS011;36505;52.512;13.460;2024-01-30T08:00:53;13.35;;;6.95;;
50549;SDS011;36505;52.512;13.460;2024-01-30T08:03:18;13.13;;;6.97;;
50549;SDS011;36505;52.512;13.460;2024-01-30T08:05:44;19.15;;;7.45;;
50549;SDS011;36505;52.512;13.460;2024-01-30T08:08:09;15.10;;;6.97;;
50549;SDS011;36505;52.512;13.460;2024-01-30T08:10:35;16.00;;;8.32;;
50549;SDS011;36505;52.512;13.460;2024-01-30T08:13:01;19.50;;;7.57;;
50549;SDS011;36505;52.512;13.460;2024-01-30T08:15:26;14.88;;;7.78;;
50549;SDS011;36505;52.512;13.460;2024-01-30T08:17:52;14.70;;;7.25;;
50549;SDS011;36505;52.512;13.460;2024-01-30T08:20:23;16.65;;;8.25;;
50549;SDS011;36505;52.512;13.460;2024-01-30T08:22:49;19.10;;;9.05;;
50549;SDS011;36505;52.512;13.460;2024-01-30T08:25:14;18.45;;;7.90;;
50549;SDS011;36505;52.512;13.460;2024-01-30T08:27:40;19.33;;;7.88;;
50549;SDS011;36505;52.512;13.460;2024-01-30T08:30:07;19.30;;;9.48;;
50549;SDS011;36505;52.512;13.460;2024-01-30T08:32:32;17.27;;;7.97;;
50549;SDS011;36505;52.512;13.460;2024-01-30T08:34:58;17.58;;;8.73;;
50549;SDS011;36505;52.512;13.460;2024-01-30T08:37:24;19.85;;;9.45;;
50549;SDS011;36505;52.512;13.460;2024-01-30T08:39:49;14.18;;;7.70;;
50549;SDS011;36505;52.512;13.460;2024-01-30T08:42:15;17.60;;;7.93;;
50549;SDS011;36505;52.512;13.460;2024-01-30T08:44:43;19.52;;;8.43;;
50549;SDS011;36505;52.512;13.460;2024-01-30T08:47:09;17.38;;;8.65;;
50549;SDS011;36505;52.512;13.460;2024-01-30T08:49:34;16.83;;;8.57;;
50549;SDS011;36505;52.512;13.460;2024-01-30T08:51:59;14.88;;;7.63;;
50549;SDS011;36505;52.512;13.460;2024-01-30T08:54:25;17.42;;;8.10;;
50549;SDS011;36505;52.512;13.460;2024-01-30T08:56:50;17.80;;;8.27;;
50549;SDS011;36505;52.512;13.460;2024-01-30T08:59:18;14.65;;;7.63;;
50549;SDS011;36505;52.512;13.460;2024-01-30T09:01:43;14.02;;;7.80;;
50549;SDS011;36505;52.512;13.460;2024-01-30T09:04:09;17.40;;;8.32;;
50549;SDS011;36505;52.512;13.460;2024-01-30T09:06:34;17.88;;;8.07;;
50549;SDS011;36505;52.512;13.460;2024-01-30T09:09:00;15.98;;;7.47;;
50549;SDS011;36505;52.512;13.460;2024-01-30T09:11:26;12.60;;;7.75;;
50549;SDS011;36505;52.512;13.460;2024-01-30T09:13:51;13.90;;;7.30;;
50549;SDS011;36505;52.512;13.460;2024-01-30T09:16:16;13.05;;;6.90;;
50549;SDS011;36505;52.512;13.460;2024-01-30T09:18:42;14.65;;;7.05;;
50549;SDS011;36505;52.512;13.460;2024-01-30T09:21:07;14.07;;;7.10;;
50549;SDS011;36505;52.512;13.460;2024-01-30T09:23:32;12.90;;;7.18;;
50549;SDS011;36505;52.512;13.460;2024-01-30T09:25:58;13.77;;;6.88;;
50549;SDS011;36505;52.512;13.460;2024-01-30T09:28:24;16.77;;;7.20;;
50549;SDS011;36505;52.512;13.460;2024-01-30T09:30:49;14.40;;;7.32;;
50549;SDS011;36505;52.512;13.460;2024-01-30T09:33:15;12.75;;;6.65;;
50549;SDS011;36505;52.512;13.460;2024-01-30T09:35:40;20.67;;;10.00;;
50549;SDS011;36505;52.512;13.460;2024-01-30T09:38:05;13.70;;;7.05;;
50549;SDS011;36505;52.512;13.460;2024-01-30T09:40:31;14.07;;;6.97;;
50549;SDS011;36505;52.512;13.460;2024-01-30T09:42:56;15.35;;;7.80;;
50549;SDS011;36505;52.512;13.460;2024-01-30T09:45:26;16.50;;;7.85;;
50549;SDS011;36505;52.512;13.460;2024-01-30T09:47:52;16.10;;;6.97;;
50549;SDS011;36505;52.512;13.460;2024-01-30T09:50:18;11.73;;;6.07;;
50549;SDS011;36505;52.512;13.460;2024-01-30T09:52:45;13.80;;;6.78;;
50549;SDS011;36505;52.512;13.460;2024-01-30T09:55:10;14.43;;;6.80;;
50549;SDS011;36505;52.512;13.460;2024-01-30T09:57:36;16.38;;;7.13;;
50549;SDS011;36505;52.512;13.460;2024-01-30T10:00:02;18.85;;;7.15;;
50549;SDS011;36505;52.512;13.460;2024-01-30T10:02:30;15.88;;;7.22;;
50549;SDS011;36505;52.512;13.460;2024-01-30T10:04:58;14.18;;;6.55;;
50549;SDS011;36505;52.512;13.460;2024-01-30T10:07:25;10.77;;;6.07;;
50549;SDS011;36505;52.512;13.460;2024-01-30T10:09:50;10.85;;;6.07;;
50549;SDS011;36505;52.512;13.460;2024-01-30T10:12:16;11.70;;;6.55;;
50549;SDS011;36505;52.512;13.460;2024-01-30T10:14:42;15.05;;;6.38;;
50549;SDS011;36505;52.512;13.460;2024-01-30T10:17:08;15.50;;;6.38;;
50549;SDS011;36505;52.512;13.460;2024-01-30T10:19:35;13.45;;;6.15;;
50549;SDS011;36505;52.512;13.460;2024-01-30T10:22:01;12.93;;;5.85;;
50549;SDS011;36505;52.512;13.460;2024-01-30T10:24:26;14.30;;;6.45;;
50549;SDS011;36505;52.512;13.460;2024-01-30T10:26:54;11.63;;;5.97;;
50549;SDS011;36505;52.512;13.460;2024-01-30T10:29:20;12.65;;;5.57;;
50549;SDS011;36505;52.512;13.460;2024-01-30T10:31:46;11.13;;;6.40;;
50549;SDS011;36505;52.512;13.460;2024-01-30T10:34:12;9.63;;;5.85;;
50549;SDS011;36505;52.512;13.460;2024-01-30T10:36:41;13.70;;;6.30;;
50549;SDS011;36505;52.512;13.460;2024-01-30T10:39:11;9.48;;;5.78;;
50549;SDS011;36505;52.512;13.460;2024-01-30T10:41:42;12.10;;;5.70;;
50549;SDS011;36505;52.512;13.460;2024-01-30T10:44:11;14.60;;;5.68;;
50549;SDS011;36505;52.512;13.460;2024-01-30T10:46:43;10.02;;;6.47;;
50549;SDS011;36505;52.512;13.460;2024-01-30T10:49:11;11.30;;;5.57;;
50549;SDS011;36505;52.512;13.460;2024-01-30T10:51:38;11.65;;;6.10;;
50549;SDS011;36505;52.512;13.460;2024-01-30T10:54:04;10.85;;;5.40;;
50549;SDS011;36505;52.512;13.460;2024-01-30T10:56:30;10.27;;;5.32;;
50549;SDS011;36505;52.512;13.460;2024-01-30T10:58:58;10.82;;;5.25;;
50549;SDS011;36505;52.512;13.460;2024-01-30T11:01:24;11.93;;;5.85;;
50549;SDS011;36505;52.512;13.460;2024-01-30T11:03:51;12.30;;;5.97;;
50549;SDS011;36505;52.512;13.460;2024-01-30T11:06:17;10.40;;;5.45;;
50549;SDS011;36505;52.512;13.460;2024-01-30T11:08:45;11.25;;;6.35;;
50549;SDS011;36505;52.512;13.460;2024-01-30T11:11:11;11.45;;;5.68;;
50549;SDS011;36505;52.512;13.460;2024-01-30T11:13:37;10.00;;;5.25;;
50549;SDS011;36505;52.512;13.460;2024-01-30T11:16:03;10.48;;;5.00;;
50549;SDS011;36505;52.512;13.460;2024-01-30T11:18:29;13.38;;;5.30;;
50549;SDS011;36505;52.512;13.460;2024-01-30T11:21:01;11.13;;;4.85;;
50549;SDS011;36505;52.512;13.460;2024-01-30T11:23:30;9.93;;;5.28;;
50549;SDS011;36505;52.512;13.460;2024-01-30T11:25:58;10.00;;;4.88;;
50549;SDS011;36505;52.512;13.460;2024-01-30T11:28:23;13.40;;;4.85;;
50549;SDS011;36505;52.512;13.460;2024-01-30T11:30:48;10.30;;;5.28;;
50549;SDS011;36505;52.512;13.460;2024-01-30T11:33:27;10.18;;;4.88;;
50549;SDS011;36505;52.512;13.460;2024-01-30T11:35:56;11.20;;;4.97;;
50549;SDS011;36505;52.512;13.460;2024-01-30T11:38:23;9.98;;;5.43;;
50549;SDS011;36505;52.512;13.460;2024-01-30T11:40:51;9.88;;;5.50;;
50549;SDS011;36505;52.512;13.460;2024-01-30T11:43:19;12.93;;;5.20;;
50549;SDS011;36505;52.512;13.460;2024-01-30T11:45:44;11.30;;;5.38;;
50549;SDS011;36505;52.512;13.460;2024-01-30T11:48:11;12.43;;;6.25;;
50549;SDS011;36505;52.512;13.460;2024-01-30T11:50:37;9.27;;;4.65;;
50549;SDS011;36505;52.512;13.460;2024-01-30T11:53:04;11.70;;;5.45;;
50549;SDS011;36505;52.512;13.460;2024-01-30T11:55:30;10.60;;;5.70;;
50549;SDS011;36505;52.512;13.460;2024-01-30T11:57:56;10.27;;;4.82;;
50549;SDS011;36505;52.512;13.460;2024-01-30T12:00:22;10.80;;;5.07;;
50549;SDS011;36505;52.512;13.460;2024-01-30T12:02:52;11.27;;;6.15;;
50549;SDS011;36505;52.512;13.460;2024-01-30T12:05:24;11.55;;;5.47;;
50549;SDS011;36505;52.512;13.460;2024-01-30T12:07:50;8.73;;;5.07;;
50549;SDS011;36505;52.512;13.460;2024-01-30T12:10:16;10.38;;;5.25;;
50549;SDS011;36505;52.512;13.460;2024-01-30T12:12:43;9.57;;;5.18;;
50549;SDS011;36505;52.512;13.460;2024-01-30T12:15:11;11.80;;;6.32;;
50549;SDS011;36505;52.512;13.460;2024-01-30T12:17:37;11.18;;;5.90;;
50549;SDS011;36505;52.512;13.460;2024-01-30T12:20:11;11.63;;;5.32;;
50549;SDS011;36505;52.512;13.460;2024-01-30T12:22:39;13.43;;;6.13;;
50549;SDS011;36505;52.512;13.460;2024-01-30T12:25:09;12.52;;;5.55;;
50549;SDS011;36505;52.512;13.460;2024-01-30T12:27:48;12.77;;;6.05;;
50549;SDS011;36505;52.512;13.460;2024-01-30T12:30:16;10.57;;;5.45;;
50549;SDS011;36505;52.512;13.460;2024-01-30T12:32:43;12.00;;;6.72;;
50549;SDS011;36505;52.512;13.460;2024-01-30T12:37:35;9.93;;;5.20;;
50549;SDS011;36505;52.512;13.460;2024-01-30T12:40:01;12.63;;;6.22;;
50549;SDS011;36505;52.512;13.460;2024-01-30T12:42:27;12.35;;;5.78;;
50549;SDS011;36505;52.512;13.460;2024-01-30T12:44:52;10.38;;;5.47;;
50549;SDS011;36505;52.512;13.460;2024-01-30T12:47:18;10.25;;;5.00;;
50549;SDS011;36505;52.512;13.460;2024-01-30T12:49:43;10.38;;;5.53;;
50549;SDS011;36505;52.512;13.460;2024-01-30T12:52:13;10.23;;;4.82;;
50549;SDS011;36505;52.512;13.460;2024-01-30T12:54:42;8.23;;;5.10;;
50549;SDS011;36505;52.512;13.460;2024-01-30T12:57:07;11.00;;;6.03;;
50549;SDS011;36505;52.512;13.460;2024-01-30T12:59:33;11.65;;;5.70;;
50549;SDS011;36505;52.512;13.460;2024-01-30T13:02:00;12.27;;;5.45;;
50549;SDS011;36505;52.512;13.460;2024-01-30T13:04:26;11.88;;;5.70;;
50549;SDS011;36505;52.512;13.460;2024-01-30T13:06:52;9.75;;;4.88;;
50549;SDS011;36505;52.512;13.460;2024-01-30T13:09:17;10.25;;;6.03;;
50549;SDS011;36505;52.512;13.460;2024-01-30T13:11:43;12.55;;;5.72;;
50549;SDS011;36505;52.512;13.460;2024-01-30T13:14:08;10.75;;;4.95;;
50549;SDS011;36505;52.512;13.460;2024-01-30T13:16:34;11.45;;;5.13;;
50549;SDS011;36505;52.512;13.460;2024-01-30T13:18:59;12.90;;;5.72;;
50549;SDS011;36505;52.512;13.460;2024-01-30T13:21:26;10.82;;;5.82;;
50549;SDS011;36505;52.512;13.460;2024-01-30T13:23:51;11.68;;;6.25;;
50549;SDS011;36505;52.512;13.460;2024-01-30T13:26:19;13.70;;;6.43;;
50549;SDS011;36505;52.512;13.460;2024-01-30T13:28:44;9.10;;;5.03;;
50549;SDS011;36505;52.512;13.460;2024-01-30T13:31:10;11.38;;;5.55;;
50549;SDS011;36505;52.512;13.460;2024-01-30T13:33:35;12.63;;;6.30;;
50549;SDS011;36505;52.512;13.460;2024-01-30T13:36:01;12.05;;;5.35;;
50549;SDS011;36505;52.512;13.460;2024-01-30T13:38:26;11.27;;;5.38;;
50549;SDS011;36505;52.512;13.460;2024-01-30T13:40:51;14.50;;;6.93;;
50549;SDS011;36505;52.512;13.460;2024-01-30T13:43:17;9.10;;;5.38;;
50549;SDS011;36505;52.512;13.460;2024-01-30T13:45:43;10.98;;;5.93;;
50549;SDS011;36505;52.512;13.460;2024-01-30T13:48:08;14.50;;;5.60;;
50549;SDS011;36505;52.512;13.460;2024-01-30T13:50:34;11.98;;;5.90;;
50549;SDS011;36505;52.512;13.460;2024-01-30T13:52:59;10.25;;;6.10;;
50549;SDS011;36505;52.512;13.460;2024-01-30T13:55:24;10.90;;;5.70;;
50549;SDS011;36505;52.512;13.460;2024-01-30T13:57:50;13.55;;;5.80;;
50549;SDS011;36505;52.512;13.460;2024-01-30T14:00:16;10.70;;;5.60;;
50549;SDS011;36505;52.512;13.460;2024-01-30T14:02:42;11.73;;;6.13;;
50549;SDS011;36505;52.512;13.460;2024-01-30T14:05:07;11.88;;;5.55;;
50549;SDS011;36505;52.512;13.460;2024-01-30T14:07:33;10.15;;;5.65;;
50549;SDS011;36505;52.512;13.460;2024-01-30T14:10:00;10.10;;;5.22;;
50549;SDS011;36505;52.512;13.460;2024-01-30T14:12:25;12.38;;;6.10;;
50549;SDS011;36505;52.512;13.460;2024-01-30T14:14:51;10.85;;;5.32;;
50549;SDS011;36505;52.512;13.460;2024-01-30T14:17:16;10.05;;;5.07;;